createdAt,value
2022-09-15T00:01:03.613Z,71.22
2022-09-15T00:03:30.434Z,71.54
2022-09-15T00:05:57.332Z,71.64
2022-09-15T00:08:25.492Z,71.68
2022-09-15T00:11:03.651Z,71.89
2022-09-15T00:13:30.526Z,71.89
2022-09-15T00:15:57.505Z,71.88
2022-09-15T00:18:25.321Z,71.88
2022-09-15T00:20:52.123Z,71.94
2022-09-15T00:23:19.246Z,72.04
2022-09-15T00:25:49.223Z,72.06
2022-09-15T00:28:21.360Z,72.18
2022-09-15T00:30:50.859Z,72.22
2022-09-15T00:33:18.521Z,72.30
2022-09-15T00:35:47.302Z,72.63
2022-09-15T00:38:15.478Z,72.79
2022-09-15T00:40:52.740Z,72.83
2022-09-15T00:43:22.743Z,73.18
2022-09-15T00:45:49.573Z,73.10
2022-09-15T00:48:20.930Z,72.99
2022-09-15T00:50:56.037Z,73.18
2022-09-15T00:53:23.873Z,73.25
2022-09-15T00:55:51.618Z,73.25
2022-09-15T00:58:33.071Z,73.33
2022-09-15T01:01:01.869Z,73.32
2022-09-15T01:03:31.913Z,73.37
2022-09-15T01:06:10.552Z,73.39
2022-09-15T01:08:52.917Z,73.30
2022-09-15T01:11:21.367Z,73.39
2022-09-15T01:13:48.073Z,73.47
2022-09-15T01:16:33.004Z,73.32
2022-09-15T01:19:02.436Z,73.41
2022-09-15T01:21:58.896Z,73.66
2022-09-15T01:24:42.508Z,73.60
2022-09-15T01:27:37.745Z,73.98
2022-09-15T01:30:26.166Z,74.01
2022-09-15T01:33:04.123Z,73.96
2022-09-15T01:35:54.243Z,74.02
2022-09-15T01:38:40.351Z,74.21
2022-09-15T01:41:18.987Z,74.41
2022-09-15T01:44:02.208Z,74.48
2022-09-15T01:46:34.787Z,74.68
2022-09-15T01:49:05.021Z,74.82
2022-09-15T01:51:34.276Z,74.84
2022-09-15T01:54:04.110Z,74.77
2022-09-15T01:56:31.420Z,74.88
2022-09-15T01:58:58.399Z,74.91
2022-09-15T02:01:50.476Z,74.98
2022-09-15T02:04:29.776Z,75.13
2022-09-15T02:07:13.367Z,75.22
2022-09-15T02:10:26.659Z,75.18
2022-09-15T02:13:17.300Z,75.40
2022-09-15T02:15:54.144Z,75.55
2022-09-15T02:18:28.846Z,75.75
2022-09-15T02:21:06.659Z,75.94
2022-09-15T02:23:40.883Z,76.04
2022-09-15T02:26:14.270Z,75.82
2022-09-15T02:28:43.345Z,75.83
2022-09-15T02:31:15.180Z,76.26
2022-09-15T02:33:49.133Z,76.16
2022-09-15T02:36:20.119Z,76.34
2022-09-15T02:38:56.157Z,76.53
2022-09-15T02:41:23.680Z,76.57
2022-09-15T02:43:51.139Z,76.72
2022-09-15T02:46:20.808Z,76.72
2022-09-15T02:48:47.795Z,76.63
2022-09-15T02:51:16.691Z,76.55
2022-09-15T02:53:45.817Z,76.60
2022-09-15T02:56:12.690Z,76.68
2022-09-15T02:58:47.371Z,76.87
2022-09-15T03:01:15.961Z,76.94
2022-09-15T03:03:46.869Z,77.30
2022-09-15T03:06:17.452Z,77.34
2022-09-15T03:08:49.450Z,77.46
2022-09-15T03:11:17.888Z,77.46
2022-09-15T03:13:44.615Z,77.57
2022-09-15T03:16:13.666Z,77.59
2022-09-15T03:18:41.869Z,77.65
2022-09-15T03:21:11.669Z,77.73
2022-09-15T03:23:38.442Z,77.78
2022-09-15T03:26:06.294Z,77.65
2022-09-15T03:28:33.182Z,77.75
2022-09-15T03:30:59.941Z,77.92
2022-09-15T03:33:27.236Z,78.18
2022-09-15T03:35:54.296Z,78.08
2022-09-15T03:38:21.313Z,78.24
2022-09-15T03:41:02.791Z,78.25
2022-09-15T03:43:31.524Z,78.42
2022-09-15T03:45:59.276Z,78.31
2022-09-15T03:48:27.632Z,78.17
2022-09-15T03:50:54.608Z,78.13
2022-09-15T03:53:21.462Z,78.05
2022-09-15T03:55:49.727Z,78.28
2022-09-15T03:58:18.720Z,78.07
2022-09-15T04:00:46.993Z,78.34
2022-09-15T04:03:14.741Z,78.29
2022-09-15T04:05:42.300Z,77.87
2022-09-15T04:08:13.113Z,77.58
2022-09-15T04:10:41.331Z,77.53
2022-09-15T04:13:08.753Z,77.28
2022-09-15T04:15:36.047Z,77.35
2022-09-15T04:18:05.158Z,77.45
2022-09-15T04:20:32.327Z,77.27
2022-09-15T04:22:59.100Z,77.37
2022-09-15T04:25:28.165Z,77.38
2022-09-15T04:27:56.284Z,77.40
2022-09-15T04:30:23.454Z,77.24
2022-09-15T04:32:51.826Z,76.97
2022-09-15T04:35:18.820Z,77.15
2022-09-15T04:37:45.644Z,76.99
2022-09-15T04:40:12.503Z,76.80
2022-09-15T04:42:39.394Z,77.01
2022-09-15T04:45:07.479Z,76.96
2022-09-15T04:47:34.784Z,76.92
2022-09-15T04:50:01.543Z,76.80
2022-09-15T04:52:28.376Z,77.00
2022-09-15T04:54:55.243Z,76.93
2022-09-15T04:57:22.265Z,76.89
2022-09-15T04:59:49.205Z,76.78
2022-09-15T05:02:16.037Z,76.63
2022-09-15T05:04:42.951Z,76.97
2022-09-15T05:07:09.756Z,76.97
2022-09-15T05:09:36.542Z,76.96
2022-09-15T05:12:03.412Z,76.84
2022-09-15T05:14:31.390Z,76.73
2022-09-15T05:16:58.238Z,76.65
2022-09-15T05:19:25.021Z,76.57
2022-09-15T05:21:51.881Z,76.76
2022-09-15T05:24:18.659Z,76.49
2022-09-15T05:26:45.501Z,76.66
2022-09-15T05:33:30.776Z,76.45
2022-09-15T05:36:00.878Z,76.24
2022-09-15T05:38:30.334Z,76.32
2022-09-15T05:41:08.676Z,76.35
2022-09-15T05:43:37.363Z,76.36
2022-09-15T05:46:06.447Z,76.06
2022-09-15T05:48:34.368Z,75.75
2022-09-15T05:51:01.265Z,75.47
2022-09-15T05:53:28.926Z,75.46
2022-09-15T05:56:01.400Z,75.09
2022-09-15T05:58:28.173Z,75.15
2022-09-15T06:00:55.686Z,74.82
2022-09-15T06:03:27.532Z,74.64
2022-09-15T06:06:02.949Z,74.37
2022-09-15T06:08:36.092Z,74.37
2022-09-15T06:11:09.654Z,73.82
2022-09-15T06:13:40.503Z,73.64
2022-09-15T06:16:13.203Z,73.47
2022-09-15T06:18:41.059Z,73.48
2022-09-15T06:21:14.111Z,73.03
2022-09-15T06:23:41.853Z,72.92
2022-09-15T06:26:38.040Z,72.87
2022-09-15T06:29:06.002Z,72.51
2022-09-15T06:31:33.756Z,72.27
2022-09-15T06:34:01.843Z,72.29
2022-09-15T06:36:30.837Z,71.84
2022-09-15T06:38:58.815Z,71.38
2022-09-15T06:41:26.176Z,71.15
2022-09-15T06:43:53.407Z,71.00
2022-09-15T06:46:23.503Z,70.91
2022-09-15T06:48:51.493Z,70.52
2022-09-15T06:51:22.996Z,70.82
2022-09-15T06:53:50.064Z,70.55
2022-09-15T06:56:19.396Z,70.17
2022-09-15T06:58:49.417Z,70.13
2022-09-15T07:01:29.720Z,70.01
2022-09-15T07:03:59.401Z,69.97
2022-09-15T07:06:30.834Z,70.02
2022-09-15T07:08:58.715Z,69.75
2022-09-15T07:11:25.759Z,69.58
2022-09-15T07:13:52.920Z,69.19
2022-09-15T07:16:20.893Z,69.31
2022-09-15T07:18:49.042Z,69.61
2022-09-15T07:21:18.671Z,69.36
2022-09-15T07:23:46.931Z,69.06
2022-09-15T07:26:18.938Z,68.66
2022-09-15T07:28:50.050Z,68.45
2022-09-15T07:31:20.055Z,68.68
2022-09-15T07:33:47.333Z,68.38
2022-09-15T07:36:14.773Z,68.07
2022-09-15T07:38:44.659Z,68.12
2022-09-15T07:41:18.730Z,67.99
2022-09-15T07:44:02.449Z,67.87
2022-09-15T07:46:33.348Z,67.74
2022-09-15T07:49:01.058Z,67.68
2022-09-15T07:51:27.730Z,67.48
2022-09-15T07:53:54.947Z,66.90
2022-09-15T07:56:22.183Z,66.96
2022-09-15T07:58:49.879Z,66.39
2022-09-15T08:01:18.382Z,66.21
2022-09-15T08:03:51.323Z,65.68
2022-09-15T08:06:21.483Z,65.45
2022-09-15T08:08:50.405Z,65.35
2022-09-15T08:11:19.567Z,64.92
2022-09-15T08:13:51.116Z,63.48
2022-09-15T08:16:23.552Z,63.58
2022-09-15T08:18:52.922Z,63.68
2022-09-15T08:21:22.072Z,63.50
2022-09-15T08:23:54.211Z,62.79
2022-09-15T08:26:21.002Z,62.06
2022-09-15T08:28:48.545Z,61.80
2022-09-15T08:31:15.701Z,60.84
2022-09-15T08:33:47.278Z,60.67
2022-09-15T08:36:14.067Z,60.06
2022-09-15T08:38:43.450Z,59.51
2022-09-15T08:41:34.237Z,59.53
2022-09-15T08:44:40.902Z,59.71
2022-09-15T08:47:19.532Z,59.37
2022-09-15T08:50:15.819Z,58.55
2022-09-15T08:53:07.159Z,58.09
2022-09-15T08:55:49.122Z,58.07
2022-09-15T08:58:21.966Z,57.79
2022-09-15T09:01:04.400Z,57.57
2022-09-15T09:03:59.975Z,55.85
2022-09-15T09:06:35.771Z,56.20
2022-09-15T09:09:21.289Z,56.16
2022-09-15T09:12:00.260Z,56.07
2022-09-15T09:14:49.117Z,55.45
2022-09-15T09:17:33.908Z,54.58
2022-09-15T09:20:12.809Z,54.27
2022-09-15T09:22:44.214Z,54.65
2022-09-15T09:25:26.551Z,54.38
2022-09-15T09:27:58.281Z,53.82
2022-09-15T09:30:29.773Z,53.10
2022-09-15T09:32:59.389Z,52.98
2022-09-15T09:35:32.275Z,53.19
2022-09-15T09:38:00.370Z,52.77
2022-09-15T09:40:28.335Z,51.80
2022-09-15T09:42:55.046Z,51.15
2022-09-15T09:45:22.905Z,50.14
2022-09-15T09:47:50.271Z,50.03
2022-09-15T09:50:35.590Z,50.23
2022-09-15T09:53:24.781Z,49.89
2022-09-15T09:55:53.480Z,50.54
2022-09-15T09:58:22.966Z,51.24
2022-09-15T10:00:50.631Z,51.58
2022-09-15T10:03:30.603Z,51.92
2022-09-15T10:06:04.527Z,52.36
2022-09-15T10:08:31.305Z,52.66
2022-09-15T10:11:06.793Z,52.50
2022-09-15T10:13:35.726Z,52.50
2022-09-15T10:16:05.484Z,52.23
2022-09-15T10:18:38.723Z,52.61
2022-09-15T10:21:09.856Z,52.52
2022-09-15T10:23:37.025Z,52.36
2022-09-15T10:26:16.023Z,51.97
2022-09-15T10:28:44.249Z,50.89
2022-09-15T10:31:28.783Z,51.04
2022-09-15T10:33:55.740Z,51.20
2022-09-15T10:36:31.444Z,50.99
2022-09-15T10:39:13.848Z,50.89
2022-09-15T10:42:07.003Z,50.87
2022-09-15T10:44:49.257Z,51.23
2022-09-15T10:47:46.408Z,51.07
2022-09-15T10:50:21.857Z,51.51
2022-09-15T10:52:54.215Z,51.98
2022-09-15T10:55:52.940Z,51.24
2022-09-15T10:59:10.959Z,51.46
2022-09-15T11:01:50.218Z,51.05
2022-09-15T11:04:31.938Z,51.25
2022-09-15T11:07:12.863Z,51.02
2022-09-15T11:09:42.252Z,51.15
2022-09-15T11:12:17.147Z,50.92
2022-09-15T11:15:19.921Z,51.14
2022-09-15T11:17:55.788Z,51.24
2022-09-15T11:20:41.048Z,50.67
2022-09-15T11:23:44.215Z,50.03
2022-09-15T11:26:19.339Z,49.88
2022-09-15T11:28:51.344Z,50.49
2022-09-15T11:31:34.626Z,50.63
2022-09-15T11:34:15.488Z,50.03
2022-09-15T11:36:53.786Z,49.90
2022-09-15T11:39:24.906Z,50.04
2022-09-15T11:42:07.237Z,50.17
2022-09-15T11:44:40.257Z,50.32
2022-09-15T11:47:40.048Z,49.88
2022-09-15T11:50:45.845Z,49.79
2022-09-15T11:53:27.870Z,50.33
2022-09-15T11:56:00.587Z,50.26
2022-09-15T11:59:07.374Z,50.65
2022-09-15T12:01:51.333Z,50.76
2022-09-15T12:04:32.268Z,50.61
2022-09-15T12:07:29.228Z,50.53
2022-09-15T12:10:06.781Z,50.57
2022-09-15T12:12:36.310Z,51.00
2022-09-15T12:15:03.484Z,50.73
2022-09-15T12:17:40.581Z,49.95
2022-09-15T12:20:36.966Z,49.98
2022-09-15T12:23:29.373Z,49.25
2022-09-15T12:26:04.357Z,48.87
2022-09-15T12:28:52.568Z,49.48
2022-09-15T12:31:28.431Z,50.14
2022-09-15T12:34:01.654Z,50.50
2022-09-15T12:36:37.533Z,50.72
2022-09-15T12:39:21.434Z,49.97
2022-09-15T12:42:08.871Z,49.98
2022-09-15T12:44:49.386Z,49.53
2022-09-15T12:47:40.913Z,49.60
2022-09-15T12:50:16.895Z,50.37
2022-09-15T12:52:43.884Z,50.23
2022-09-15T12:55:19.333Z,50.89
2022-09-15T12:57:52.915Z,51.11
2022-09-15T13:00:35.825Z,51.12
2022-09-15T13:03:04.765Z,51.73
2022-09-15T13:05:46.319Z,51.89
2022-09-15T13:08:29.870Z,51.71
2022-09-15T13:11:07.344Z,51.74
2022-09-15T13:14:08.434Z,51.51
2022-09-15T13:16:44.091Z,51.54
2022-09-15T13:19:15.111Z,51.43
2022-09-15T13:21:52.619Z,51.51
2022-09-15T13:24:45.829Z,51.58
2022-09-15T13:27:16.121Z,51.85
2022-09-15T13:29:50.968Z,52.31
2022-09-15T13:32:42.297Z,52.57
2022-09-15T13:35:38.958Z,52.68
2022-09-15T13:38:24.018Z,52.49
2022-09-15T13:41:26.424Z,52.69
2022-09-15T13:44:11.335Z,52.66
2022-09-15T13:47:06.584Z,52.60
2022-09-15T13:49:45.463Z,52.64
2022-09-15T13:52:25.805Z,52.50
2022-09-15T13:55:14.484Z,52.69
2022-09-15T14:00:35.133Z,53.26
2022-09-15T14:03:09.952Z,53.31
2022-09-15T14:05:56.623Z,53.39
2022-09-15T14:08:33.649Z,53.52
2022-09-15T14:11:05.001Z,53.74
2022-09-15T14:13:32.051Z,53.33
2022-09-15T14:16:34.128Z,52.88
2022-09-15T14:19:02.432Z,52.29
2022-09-15T14:21:32.780Z,52.14
2022-09-15T14:24:05.296Z,52.44
2022-09-15T14:26:35.843Z,52.54
2022-09-15T14:29:07.627Z,52.62
2022-09-15T14:31:42.767Z,52.86
2022-09-15T14:34:19.131Z,53.07
2022-09-15T14:36:54.277Z,53.36
2022-09-15T14:39:22.848Z,53.20
2022-09-15T14:41:50.845Z,53.60
2022-09-15T14:47:28.934Z,53.22
2022-09-15T14:50:17.857Z,52.71
2022-09-15T14:52:48.509Z,52.24
2022-09-15T14:55:20.862Z,52.15
2022-09-15T14:57:57.733Z,51.66
2022-09-15T15:00:30.821Z,51.33
2022-09-15T15:03:34.794Z,51.08
2022-09-15T15:06:31.030Z,51.07
2022-09-15T15:09:08.783Z,51.04
2022-09-15T15:11:36.759Z,51.06
2022-09-15T15:14:08.147Z,50.74
2022-09-15T15:16:35.947Z,50.54
2022-09-15T15:19:03.508Z,50.33
2022-09-15T15:21:38.447Z,50.64
2022-09-15T15:24:15.378Z,51.01
2022-09-15T15:26:46.587Z,51.33
2022-09-15T15:29:48.482Z,51.77
2022-09-15T15:32:25.611Z,52.30
2022-09-15T15:34:58.596Z,52.67
2022-09-15T15:37:29.950Z,53.08
2022-09-15T15:39:59.143Z,53.49
2022-09-15T15:42:29.060Z,53.91
2022-09-15T15:45:23.757Z,54.13
2022-09-15T15:47:50.652Z,54.40
2022-09-15T15:50:24.950Z,54.87
2022-09-15T15:52:53.130Z,54.87
2022-09-15T15:55:25.385Z,55.17
2022-09-15T15:57:54.795Z,55.47
2022-09-15T16:00:24.317Z,55.77
2022-09-15T16:02:52.790Z,55.87
2022-09-15T16:05:22.234Z,55.83
2022-09-15T16:07:52.122Z,56.04
2022-09-15T16:10:21.654Z,56.41
2022-09-15T16:12:48.474Z,56.28
2022-09-15T16:15:18.538Z,56.44
2022-09-15T16:17:47.135Z,56.67
2022-09-15T16:20:16.275Z,56.80
2022-09-15T16:22:43.878Z,56.89
2022-09-15T16:25:18.790Z,56.95
2022-09-15T16:27:45.627Z,57.14
2022-09-15T16:30:12.643Z,57.22
2022-09-15T16:32:41.496Z,57.33
2022-09-15T16:36:03.374Z,57.44
2022-09-15T16:38:30.346Z,57.58
2022-09-15T16:40:57.544Z,57.78
2022-09-15T16:43:24.323Z,57.87
2022-09-15T16:45:52.186Z,58.02
2022-09-15T16:48:19.192Z,58.20
2022-09-15T16:51:16.884Z,58.22
2022-09-15T16:53:34.680Z,58.65
2022-09-15T16:56:01.896Z,59.07
2022-09-15T16:58:28.749Z,59.25
2022-09-15T17:00:56.821Z,59.62
2022-09-15T17:03:25.708Z,59.84
2022-09-15T17:05:55.369Z,60.31
2022-09-15T17:08:29.668Z,60.72
2022-09-15T17:10:58.982Z,61.34
2022-09-15T17:13:30.282Z,61.31
2022-09-15T17:15:59.173Z,61.60
2022-09-15T17:18:26.778Z,61.55
2022-09-15T17:20:53.978Z,61.90
2022-09-15T17:23:31.282Z,61.87
2022-09-15T17:26:00.630Z,61.90
2022-09-15T17:28:32.763Z,62.02
2022-09-15T17:31:05.900Z,62.19
2022-09-15T17:33:33.499Z,62.39
2022-09-15T17:36:00.824Z,62.58
2022-09-15T17:38:28.209Z,62.73
2022-09-15T17:40:55.745Z,62.91
2022-09-15T17:43:26.091Z,63.06
2022-09-15T17:45:54.037Z,63.23
2022-09-15T17:48:21.588Z,63.30
2022-09-15T17:50:48.991Z,63.30
2022-09-15T17:53:22.706Z,63.37
2022-09-15T17:55:55.769Z,63.60
2022-09-15T17:58:30.292Z,63.63
2022-09-15T18:00:58.105Z,63.79
2022-09-15T18:03:31.271Z,64.05
2022-09-15T18:06:00.759Z,64.20
2022-09-15T18:08:28.333Z,64.51
2022-09-15T18:10:55.287Z,64.48
2022-09-15T18:13:24.060Z,64.69
2022-09-15T18:15:51.798Z,64.80
2022-09-15T18:18:21.717Z,64.85
2022-09-15T18:20:50.897Z,65.04
2022-09-15T18:23:20.866Z,65.19
2022-09-15T18:25:49.063Z,65.32
2022-09-15T18:28:17.075Z,65.56
2022-09-15T18:30:46.906Z,65.74
2022-09-15T18:33:25.583Z,65.98
2022-09-15T18:35:55.336Z,66.01
2022-09-15T18:38:22.519Z,66.21
2022-09-15T18:40:53.495Z,66.44
2022-09-15T18:43:21.170Z,66.58
2022-09-15T18:45:48.570Z,66.45
2022-09-15T18:48:16.011Z,66.64
2022-09-15T18:50:44.670Z,66.51
2022-09-15T18:53:12.701Z,66.77
2022-09-15T18:55:43.964Z,66.70
2022-09-15T18:58:11.739Z,66.86
2022-09-15T19:00:38.784Z,67.03
2022-09-15T19:03:14.338Z,67.03
2022-09-15T19:05:41.619Z,67.06
2022-09-15T19:08:09.484Z,67.29
2022-09-15T19:10:36.425Z,67.28
2022-09-15T19:13:03.327Z,67.35
2022-09-15T19:15:33.962Z,67.32
2022-09-15T19:18:00.769Z,67.42
2022-09-15T19:20:27.585Z,67.52
2022-09-15T19:22:54.357Z,67.64
2022-09-15T19:25:21.159Z,67.56
2022-09-15T19:27:48.856Z,67.89
2022-09-15T19:30:15.694Z,67.85
2022-09-15T19:32:42.823Z,67.93
2022-09-15T19:35:11.836Z,68.12
2022-09-15T19:37:40.705Z,68.12
2022-09-15T19:40:11.125Z,68.22
2022-09-15T19:42:39.538Z,68.33
2022-09-15T19:45:07.921Z,68.43
2022-09-15T19:47:35.538Z,68.46
2022-09-15T19:50:04.169Z,68.62
2022-09-15T19:52:31.424Z,68.59
2022-09-15T19:54:58.691Z,68.64
2022-09-15T19:57:25.435Z,68.77
2022-09-15T19:59:52.254Z,68.88
2022-09-15T20:02:20.859Z,69.13
2022-09-15T20:07:35.616Z,69.47
2022-09-15T20:10:03.355Z,69.38
2022-09-15T20:12:31.534Z,69.62
2022-09-15T20:14:58.601Z,69.80
2022-09-15T20:17:27.076Z,69.94
2022-09-15T20:19:54.382Z,69.91
2022-09-15T20:22:22.354Z,70.13
2022-09-15T20:24:50.412Z,70.24
2022-09-15T20:27:18.595Z,70.29
2022-09-15T20:29:46.479Z,70.31
2022-09-15T20:32:16.069Z,70.77
2022-09-15T20:34:43.865Z,70.90
2022-09-15T20:37:11.918Z,70.82
2022-09-15T20:39:39.788Z,71.02
2022-09-15T20:42:06.974Z,70.88
2022-09-15T20:44:34.607Z,70.89
2022-09-15T20:47:02.259Z,70.99
2022-09-15T20:49:29.275Z,71.21
2022-09-15T20:51:57.093Z,71.13
2022-09-15T20:54:24.291Z,71.24
2022-09-15T20:56:51.278Z,71.23
2022-09-15T20:59:18.207Z,71.45
2022-09-15T21:01:45.225Z,71.40
2022-09-15T21:04:12.733Z,71.61
2022-09-15T21:06:39.833Z,71.69
2022-09-15T21:09:08.134Z,71.88
2022-09-15T21:11:35.907Z,71.98
2022-09-15T21:14:03.623Z,72.27
2022-09-15T21:16:30.892Z,72.18
2022-09-15T21:18:59.362Z,72.39
2022-09-15T21:21:31.173Z,72.47
2022-09-15T21:24:02.074Z,72.55
2022-09-15T21:26:59.446Z,72.52
2022-09-15T21:29:28.085Z,72.60
2022-09-15T21:31:56.006Z,72.71
2022-09-15T21:34:23.955Z,72.55
2022-09-15T21:36:51.964Z,72.75
2022-09-15T21:39:19.034Z,72.75
2022-09-15T21:41:46.206Z,72.83
2022-09-15T21:44:13.240Z,72.92
2022-09-15T21:46:40.321Z,73.05
2022-09-15T21:49:08.386Z,73.07
2022-09-15T21:51:35.673Z,73.18
2022-09-15T21:54:02.671Z,73.30
2022-09-15T21:56:30.359Z,73.36
2022-09-15T21:58:57.887Z,73.44
2022-09-15T22:01:30.400Z,73.36
2022-09-15T22:04:01.682Z,73.45
2022-09-15T22:06:37.571Z,73.28
2022-09-15T22:09:11.388Z,73.46
2022-09-15T22:11:38.306Z,73.66
2022-09-15T22:14:08.454Z,73.66
2022-09-15T22:16:38.823Z,73.77
2022-09-15T22:19:07.598Z,73.77
2022-09-15T22:21:37.157Z,73.80
2022-09-15T22:24:07.178Z,73.73
2022-09-15T22:26:36.813Z,73.74
2022-09-15T22:29:05.548Z,73.83
2022-09-15T22:31:33.125Z,73.88
2022-09-15T22:34:00.121Z,73.99
2022-09-15T22:36:30.405Z,73.89
2022-09-15T22:39:05.809Z,74.05
2022-09-15T22:41:38.560Z,74.12
2022-09-15T22:44:06.893Z,74.24
2022-09-15T22:46:34.581Z,74.24
2022-09-15T22:49:02.202Z,74.38
2022-09-15T22:51:29.282Z,74.55
2022-09-15T22:53:57.498Z,74.58
2022-09-15T22:56:26.656Z,74.81
2022-09-15T22:58:55.200Z,74.91
2022-09-15T23:01:24.833Z,74.96
2022-09-15T23:04:02.329Z,74.93
2022-09-15T23:06:32.108Z,74.95
2022-09-15T23:09:01.436Z,75.02
2022-09-15T23:11:29.956Z,74.94
2022-09-15T23:13:57.013Z,74.92
2022-09-15T23:16:25.188Z,75.00
2022-09-15T23:18:52.964Z,75.13
2022-09-15T23:21:21.362Z,75.28
2022-09-15T23:23:49.499Z,75.42
2022-09-15T23:26:18.713Z,75.38
2022-09-15T23:28:45.536Z,75.58
2022-09-15T23:31:13.302Z,75.55
2022-09-15T23:33:40.367Z,75.67
2022-09-15T23:36:13.347Z,75.75
2022-09-15T23:38:41.832Z,75.84
2022-09-15T23:41:10.037Z,75.93
2022-09-15T23:43:37.011Z,76.04
2022-09-15T23:46:04.442Z,76.10
2022-09-15T23:48:32.772Z,76.31
2022-09-15T23:51:01.171Z,76.41
2022-09-15T23:53:28.514Z,76.41
2022-09-15T23:55:55.355Z,76.49
2022-09-15T23:58:22.272Z,76.54
